sensor_id;sensor_type;location;lat;lon;timestamp;pressure;altitude;pressure_sealevel;temperature;humidity
4972;BME280;2501;51.214;6.768;2023-05-07T00:00:09;101293.00;;;15.13;96.20
4972;BME280;2501;51.214;6.768;2023-05-07T00:02:40;101290.34;;;15.18;96.64
4972;BME280;2501;51.214;6.768;2023-05-07T00:05:10;101289.47;;;15.23;96.32
4972;BME280;2501;51.214;6.768;2023-05-07T00:07:38;101290.34;;;15.18;95.20
4972;BME280;2501;51.214;6.768;2023-05-07T00:10:08;101286.84;;;15.20;94.79
4972;BME280;2501;51.214;6.768;2023-05-07T00:12:40;101285.97;;;15.15;95.31
4972;BME280;2501;51.214;6.768;2023-05-07T00:15:09;101283.19;;;15.41;93.92
4972;BME280;2501;51.214;6.768;2023-05-07T00:17:38;101280.69;;;15.14;94.38
4972;BME280;2501;51.214;6.768;2023-05-07T00:20:07;101279.78;;;15.16;95.34
4972;BME280;2501;51.214;6.768;2023-05-07T00:22:35;101280.72;;;15.06;95.58
4972;BME280;2501;51.214;6.768;2023-05-07T00:25:05;101282.44;;;15.15;95.40
4972;BME280;2501;51.214;6.768;2023-05-07T00:27:33;101279.81;;;15.15;95.90
4972;BME280;2501;51.214;6.768;2023-05-07T00:30:06;101286.91;;;15.01;96.23
4972;BME280;2501;51.214;6.768;2023-05-07T00:32:34;101279.00;;;14.96;96.46
4972;BME280;2501;51.214;6.768;2023-05-07T00:35:03;101278.13;;;14.94;96.67
4972;BME280;2501;51.214;6.768;2023-05-07T00:37:32;101277.22;;;14.95;97.12
4972;BME280;2501;51.214;6.768;2023-05-07T00:40:00;101271.06;;;15.02;97.18
4972;BME280;2501;51.214;6.768;2023-05-07T00:42:32;101278.13;;;14.94;97.02
4972;BME280;2501;51.214;6.768;2023-05-07T00:45:00;101269.03;;;15.57;95.95
4972;BME280;2501;51.214;6.768;2023-05-07T00:47:32;101266.66;;;14.98;95.51
4972;BME280;2501;51.214;6.768;2023-05-07T00:50:00;101270.25;;;14.83;96.64
4972;BME280;2501;51.214;6.768;2023-05-07T00:52:29;101274.66;;;14.80;97.51
4972;BME280;2501;51.214;6.768;2023-05-07T00:54:58;101268.47;;;14.81;97.46
4972;BME280;2501;51.214;6.768;2023-05-07T00:57:28;101276.41;;;14.78;97.79
4972;BME280;2501;51.214;6.768;2023-05-07T00:59:56;101277.28;;;14.78;98.08
4972;BME280;2501;51.214;6.768;2023-05-07T01:02:25;101275.53;;;14.79;97.90
4972;BME280;2501;51.214;6.768;2023-05-07T01:04:56;101266.72;;;14.81;98.00
4972;BME280;2501;51.214;6.768;2023-05-07T01:07:25;101273.78;;;14.79;97.99
4972;BME280;2501;51.214;6.768;2023-05-07T01:09:53;101279.06;;;14.75;97.97
4972;BME280;2501;51.214;6.768;2023-05-07T01:12:22;101279.06;;;14.76;98.08
4972;BME280;2501;51.214;6.768;2023-05-07T01:14:51;101269.38;;;14.78;98.04
4972;BME280;2501;51.214;6.768;2023-05-07T01:17:20;101259.63;;;14.95;97.70
4972;BME280;2501;51.214;6.768;2023-05-07T01:19:49;101260.56;;;14.81;97.52
4972;BME280;2501;51.214;6.768;2023-05-07T01:22:28;101264.97;;;14.83;97.59
4972;BME280;2501;51.214;6.768;2023-05-07T01:24:57;101264.09;;;14.80;97.81
4972;BME280;2501;51.214;6.768;2023-05-07T01:27:27;101256.97;;;15.02;96.65
4972;BME280;2501;51.214;6.768;2023-05-07T01:29:55;101256.09;;;14.95;96.40
4972;BME280;2501;51.214;6.768;2023-05-07T01:32:27;101250.81;;;14.95;96.39
4972;BME280;2501;51.214;6.768;2023-05-07T01:34:57;101250.81;;;14.92;95.73
4972;BME280;2501;51.214;6.768;2023-05-07T01:37:29;101253.53;;;14.75;96.58
4972;BME280;2501;51.214;6.768;2023-05-07T01:39:58;101250.88;;;14.75;97.06
4972;BME280;2501;51.214;6.768;2023-05-07T01:42:26;101247.38;;;14.75;98.24
4972;BME280;2501;51.214;6.768;2023-05-07T01:44:55;101245.66;;;14.57;98.76
4972;BME280;2501;51.214;6.768;2023-05-07T01:47:25;101256.25;;;14.48;99.79
4972;BME280;2501;51.214;6.768;2023-05-07T01:49:53;101250.09;;;14.41;100.00
4972;BME280;2501;51.214;6.768;2023-05-07T01:52:22;101256.25;;;14.37;100.00
4972;BME280;2501;51.214;6.768;2023-05-07T01:54:53;101260.63;;;14.64;100.00
4972;BME280;2501;51.214;6.768;2023-05-07T01:57:22;101249.19;;;14.63;99.52
4972;BME280;2501;51.214;6.768;2023-05-07T01:59:50;101253.63;;;14.40;99.98
4972;BME280;2501;51.214;6.768;2023-05-07T02:02:19;101250.09;;;14.37;100.00
4972;BME280;2501;51.214;6.768;2023-05-07T02:04:47;101250.97;;;14.31;100.00
4972;BME280;2501;51.214;6.768;2023-05-07T02:07:16;101248.34;;;14.31;100.00
4972;BME280;2501;51.214;6.768;2023-05-07T02:09:44;101249.22;;;14.30;100.00
4972;BME280;2501;51.214;6.768;2023-05-07T02:12:15;101247.47;;;14.24;100.00
4972;BME280;2501;51.214;6.768;2023-05-07T02:14:43;101253.63;;;14.28;99.94
4972;BME280;2501;51.214;6.768;2023-05-07T02:17:12;101249.22;;;14.28;100.00
4972;BME280;2501;51.214;6.768;2023-05-07T02:19:40;101251.84;;;14.22;100.00
4972;BME280;2501;51.214;6.768;2023-05-07T02:22:10;101250.09;;;14.46;100.00
4972;BME280;2501;51.214;6.768;2023-05-07T02:24:38;101257.13;;;14.30;99.65
4972;BME280;2501;51.214;6.768;2023-05-07T02:27:06;101251.84;;;14.25;99.52
4972;BME280;2501;51.214;6.768;2023-05-07T02:29:37;101250.09;;;14.26;99.32
4972;BME280;2501;51.214;6.768;2023-05-07T02:32:06;101250.97;;;14.28;99.28
4972;BME280;2501;51.214;6.768;2023-05-07T02:34:34;101251.84;;;14.28;99.46
4972;BME280;2501;51.214;6.768;2023-05-07T02:37:03;101254.50;;;14.24;99.54
4972;BME280;2501;51.214;6.768;2023-05-07T02:39:31;101255.38;;;14.24;99.74
4972;BME280;2501;51.214;6.768;2023-05-07T02:42:00;101253.63;;;14.25;100.00
4972;BME280;2501;51.214;6.768;2023-05-07T02:44:28;101254.50;;;14.27;100.00
4972;BME280;2501;51.214;6.768;2023-05-07T02:47:00;101251.88;;;14.19;100.00
4972;BME280;2501;51.214;6.768;2023-05-07T02:49:28;101251.88;;;14.16;100.00
4972;BME280;2501;51.214;6.768;2023-05-07T02:51:57;101251.00;;;14.11;100.00
4972;BME280;2501;51.214;6.768;2023-05-07T02:54:25;101251.00;;;14.10;100.00
4972;BME280;2501;51.214;6.768;2023-05-07T02:56:53;101252.75;;;14.11;100.00
4972;BME280;2501;51.214;6.768;2023-05-07T02:59:22;101263.31;;;14.11;100.00
4972;BME280;2501;51.214;6.768;2023-05-07T03:01:50;101264.19;;;14.11;100.00
4972;BME280;2501;51.214;6.768;2023-05-07T03:04:21;101264.19;;;14.08;100.00
4972;BME280;2501;51.214;6.768;2023-05-07T03:06:50;101258.91;;;14.10;100.00
4972;BME280;2501;51.214;6.768;2023-05-07T03:09:18;101263.31;;;14.18;100.00
4972;BME280;2501;51.214;6.768;2023-05-07T03:11:46;101263.28;;;14.21;100.00
4972;BME280;2501;51.214;6.768;2023-05-07T03:14:15;101258.91;;;14.14;100.00
4972;BME280;2501;51.214;6.768;2023-05-07T03:16:43;101254.53;;;14.19;100.00
4972;BME280;2501;51.214;6.768;2023-05-07T03:19:12;101249.22;;;14.24;100.00
4972;BME280;2501;51.214;6.768;2023-05-07T03:21:43;101246.56;;;14.21;99.22
4972;BME280;2501;51.214;6.768;2023-05-07T03:24:11;101243.94;;;14.24;98.69
4972;BME280;2501;51.214;6.768;2023-05-07T03:26:39;101238.66;;;14.21;98.36
4972;BME280;2501;51.214;6.768;2023-05-07T03:29:08;101239.53;;;14.20;98.29
4972;BME280;2501;51.214;6.768;2023-05-07T03:31:36;101243.06;;;14.23;98.01
4972;BME280;2501;51.214;6.768;2023-05-07T03:34:05;101249.22;;;14.24;97.77
4972;BME280;2501;51.214;6.768;2023-05-07T03:36:33;101243.94;;;14.21;97.22
4972;BME280;2501;51.214;6.768;2023-05-07T03:39:04;101247.44;;;14.21;97.20
4972;BME280;2501;51.214;6.768;2023-05-07T03:41:32;101245.72;;;14.19;96.99
4972;BME280;2501;51.214;6.768;2023-05-07T03:44:01;101250.13;;;14.18;96.80
4972;BME280;2501;51.214;6.768;2023-05-07T03:46:30;101237.78;;;14.20;96.50
4972;BME280;2501;51.214;6.768;2023-05-07T03:48:59;101241.28;;;14.22;96.31
4972;BME280;2501;51.214;6.768;2023-05-07T03:51:27;101243.94;;;14.21;95.72
4972;BME280;2501;51.214;6.768;2023-05-07T03:53:56;101247.47;;;14.24;95.53
4972;BME280;2501;51.214;6.768;2023-05-07T03:56:27;101249.22;;;14.25;95.20
4972;BME280;2501;51.214;6.768;2023-05-07T03:58:56;101254.50;;;14.28;94.97
4972;BME280;2501;51.214;6.768;2023-05-07T04:01:25;101255.38;;;14.31;94.45
4972;BME280;2501;51.214;6.768;2023-05-07T04:03:53;101261.53;;;14.31;94.38
4972;BME280;2501;51.214;6.768;2023-05-07T04:06:21;101255.38;;;14.34;93.99
4972;BME280;2501;51.214;6.768;2023-05-07T04:08:50;101260.66;;;14.35;94.07
4972;BME280;2501;51.214;6.768;2023-05-07T04:11:19;101259.75;;;14.38;94.04
4972;BME280;2501;51.214;6.768;2023-05-07T04:13:50;101270.31;;;14.39;93.86
4972;BME280;2501;51.214;6.768;2023-05-07T04:16:18;101260.66;;;14.47;93.60
4972;BME280;2501;51.214;6.768;2023-05-07T04:18:46;101258.03;;;14.47;93.15
4972;BME280;2501;51.214;6.768;2023-05-07T04:21:15;101265.06;;;14.45;92.99
4972;BME280;2501;51.214;6.768;2023-05-07T04:23:45;101265.94;;;14.46;93.10
4972;BME280;2501;51.214;6.768;2023-05-07T04:26:14;101260.66;;;14.47;93.00
4972;BME280;2501;51.214;6.768;2023-05-07T04:28:42;101268.56;;;14.47;92.73
4972;BME280;2501;51.214;6.768;2023-05-07T04:31:13;101265.00;;;14.65;91.78
4972;BME280;2501;51.214;6.768;2023-05-07T04:33:42;101256.25;;;14.52;92.03
4972;BME280;2501;51.214;6.768;2023-05-07T04:36:10;101261.53;;;14.52;92.21
4972;BME280;2501;51.214;6.768;2023-05-07T04:38:39;101257.94;;;14.78;91.08
4972;BME280;2501;51.214;6.768;2023-05-07T04:41:08;101264.09;;;14.74;91.53
4972;BME280;2501;51.214;6.768;2023-05-07T04:43:37;101258.00;;;14.50;91.76
4972;BME280;2501;51.214;6.768;2023-05-07T04:46:05;101251.81;;;14.59;91.05
4972;BME280;2501;51.214;6.768;2023-05-07T04:48:36;101257.97;;;14.58;92.04
4972;BME280;2501;51.214;6.768;2023-05-07T04:51:04;101257.09;;;14.59;91.92
4972;BME280;2501;51.214;6.768;2023-05-07T04:53:36;101259.75;;;14.65;91.74
4972;BME280;2501;51.214;6.768;2023-05-07T04:56:05;101261.50;;;14.61;91.71
4972;BME280;2501;51.214;6.768;2023-05-07T04:58:34;101259.78;;;14.54;92.48
4972;BME280;2501;51.214;6.768;2023-05-07T05:01:02;101258.84;;;14.60;93.02
4972;BME280;2501;51.214;6.768;2023-05-07T05:03:31;101263.25;;;14.62;92.48
4972;BME280;2501;51.214;6.768;2023-05-07T05:06:02;101263.25;;;14.66;92.71
4972;BME280;2501;51.214;6.768;2023-05-07T05:08:31;101272.00;;;14.72;91.94
4972;BME280;2501;51.214;6.768;2023-05-07T05:11:03;101266.59;;;15.07;91.86
4972;BME280;2501;51.214;6.768;2023-05-07T05:13:32;101265.69;;;15.22;89.89
4972;BME280;2501;51.214;6.768;2023-05-07T05:16:00;101265.59;;;15.39;88.27
4972;BME280;2501;51.214;6.768;2023-05-07T05:18:28;101269.31;;;14.96;89.55
4972;BME280;2501;51.214;6.768;2023-05-07T05:20:57;101272.06;;;14.68;90.68
4972;BME280;2501;51.214;6.768;2023-05-07T05:23:28;101275.56;;;14.63;90.92
4972;BME280;2501;51.214;6.768;2023-05-07T05:25:56;101275.56;;;14.71;91.65
4972;BME280;2501;51.214;6.768;2023-05-07T05:28:25;101275.53;;;14.74;91.68
4972;BME280;2501;51.214;6.768;2023-05-07T05:30:55;101281.69;;;14.75;91.78
4972;BME280;2501;51.214;6.768;2023-05-07T05:33:23;101276.47;;;14.67;91.89
4972;BME280;2501;51.214;6.768;2023-05-07T05:35:53;101279.91;;;14.86;91.42
4972;BME280;2501;51.214;6.768;2023-05-07T05:38:21;101285.19;;;14.87;90.75
4972;BME280;2501;51.214;6.768;2023-05-07T05:40:53;101285.19;;;14.87;90.20
4972;BME280;2501;51.214;6.768;2023-05-07T05:43:21;101285.16;;;14.92;89.43
4972;BME280;2501;51.214;6.768;2023-05-07T05:45:49;101286.03;;;15.06;88.49
4972;BME280;2501;51.214;6.768;2023-05-07T05:48:18;101291.31;;;14.92;88.72
4972;BME280;2501;51.214;6.768;2023-05-07T05:50:49;101296.59;;;15.00;89.12
4972;BME280;2501;51.214;6.768;2023-05-07T05:53:18;101298.34;;;15.03;89.01
4972;BME280;2501;51.214;6.768;2023-05-07T05:55:47;101294.84;;;15.02;87.94
4972;BME280;2501;51.214;6.768;2023-05-07T05:58:19;101297.41;;;15.11;87.33
4972;BME280;2501;51.214;6.768;2023-05-07T06:00:48;101285.91;;;15.24;87.41
4972;BME280;2501;51.214;6.768;2023-05-07T06:03:17;101284.91;;;15.53;86.24
4972;BME280;2501;51.214;6.768;2023-05-07T06:05:46;101294.75;;;15.20;86.64
4972;BME280;2501;51.214;6.768;2023-05-07T06:08:14;101293.72;;;15.47;85.48
4972;BME280;2501;51.214;6.768;2023-05-07T06:10:43;101290.78;;;15.97;84.90
4972;BME280;2501;51.214;6.768;2023-05-07T06:13:12;101294.63;;;15.43;85.54
4972;BME280;2501;51.214;6.768;2023-05-07T06:15:43;101295.28;;;15.83;84.47
4972;BME280;2501;51.214;6.768;2023-05-07T06:18:11;101296.31;;;15.64;83.92
4972;BME280;2501;51.214;6.768;2023-05-07T06:20:40;101293.66;;;15.65;84.75
4972;BME280;2501;51.214;6.768;2023-05-07T06:23:08;101299.88;;;15.51;85.28
4972;BME280;2501;51.214;6.768;2023-05-07T06:25:37;101301.75;;;15.33;85.90
4972;BME280;2501;51.214;6.768;2023-05-07T06:28:06;101306.13;;;15.38;86.57
4972;BME280;2501;51.214;6.768;2023-05-07T06:30:36;101306.88;;;15.64;86.28
4972;BME280;2501;51.214;6.768;2023-05-07T06:33:08;101306.03;;;15.59;84.89
4972;BME280;2501;51.214;6.768;2023-05-07T06:35:36;101309.44;;;15.78;85.00
4972;BME280;2501;51.214;6.768;2023-05-07T06:38:05;101304.00;;;15.97;82.92
4972;BME280;2501;51.214;6.768;2023-05-07T06:40:33;101305.94;;;15.74;82.68
4972;BME280;2501;51.214;6.768;2023-05-07T06:43:01;101305.88;;;15.85;82.12
4972;BME280;2501;51.214;6.768;2023-05-07T06:45:30;101304.16;;;15.78;83.14
4972;BME280;2501;51.214;6.768;2023-05-07T06:47:58;101310.16;;;15.99;82.77
4972;BME280;2501;51.214;6.768;2023-05-07T06:50:29;101312.63;;;16.22;80.84
4972;BME280;2501;51.214;6.768;2023-05-07T06:52:58;101299.41;;;16.24;80.28
4972;BME280;2501;51.214;6.768;2023-05-07T06:55:26;101301.38;;;16.92;76.82
4972;BME280;2501;51.214;6.768;2023-05-07T06:57:55;101301.50;;;16.82;76.12
4972;BME280;2501;51.214;6.768;2023-05-07T07:00:26;101308.50;;;16.86;75.45
4972;BME280;2501;51.214;6.768;2023-05-07T07:02:54;101309.03;;;17.15;75.53
4972;BME280;2501;51.214;6.768;2023-05-07T07:05:23;101304.53;;;17.23;74.62
4972;BME280;2501;51.214;6.768;2023-05-07T07:07:55;101310.13;;;17.68;72.63
4972;BME280;2501;51.214;6.768;2023-05-07T07:10:23;101316.38;;;16.96;73.77
4972;BME280;2501;51.214;6.768;2023-05-07T07:12:52;101313.44;;;16.30;76.60
4972;BME280;2501;51.214;6.768;2023-05-07T07:15:20;101321.94;;;16.70;76.80
4972;BME280;2501;51.214;6.768;2023-05-07T07:17:50;101315.59;;;16.84;76.12
4972;BME280;2501;51.214;6.768;2023-05-07T07:20:18;101319.72;;;17.12;73.61
4972;BME280;2501;51.214;6.768;2023-05-07T07:22:47;101308.94;;;16.45;76.35
4972;BME280;2501;51.214;6.768;2023-05-07T07:25:18;101311.00;;;16.98;76.76
4972;BME280;2501;51.214;6.768;2023-05-07T07:27:46;101319.13;;;16.84;75.79
4972;BME280;2501;51.214;6.768;2023-05-07T07:30:15;101317.34;;;16.86;75.98
4972;BME280;2501;51.214;6.768;2023-05-07T07:32:43;101315.16;;;17.22;74.90
4972;BME280;2501;51.214;6.768;2023-05-07T07:35:12;101320.72;;;17.00;75.07
4972;BME280;2501;51.214;6.768;2023-05-07T07:37:40;101319.88;;;16.97;74.39
4972;BME280;2501;51.214;6.768;2023-05-07T07:40:10;101322.56;;;16.94;75.46
4972;BME280;2501;51.214;6.768;2023-05-07T07:42:42;101315.00;;;17.34;74.63
4972;BME280;2501;51.214;6.768;2023-05-07T07:45:11;101318.53;;;17.34;73.04
4972;BME280;2501;51.214;6.768;2023-05-07T07:47:39;101317.63;;;17.35;73.32
4972;BME280;2501;51.214;6.768;2023-05-07T07:50:09;101319.69;;;17.83;72.84
4972;BME280;2501;51.214;6.768;2023-05-07T07:52:38;101312.34;;;18.00;70.49
4972;BME280;2501;51.214;6.768;2023-05-07T07:55:07;101315.72;;;17.47;71.73
4972;BME280;2501;51.214;6.768;2023-05-07T07:57:36;101310.84;;;17.82;69.41
4972;BME280;2501;51.214;6.768;2023-05-07T08:00:09;101316.28;;;18.28;68.44
4972;BME280;2501;51.214;6.768;2023-05-07T08:02:38;101322.09;;;18.50;68.63
4972;BME280;2501;51.214;6.768;2023-05-07T08:05:07;101324.19;;;18.33;68.09
4972;BME280;2501;51.214;6.768;2023-05-07T08:07:35;101327.25;;;18.58;67.56
4972;BME280;2501;51.214;6.768;2023-05-07T08:10:04;101309.63;;;19.03;65.41
4972;BME280;2501;51.214;6.768;2023-05-07T08:12:33;101315.09;;;18.94;64.65
4972;BME280;2501;51.214;6.768;2023-05-07T08:15:02;101317.09;;;18.84;65.15
4972;BME280;2501;51.214;6.768;2023-05-07T08:17:33;101320.50;;;18.89;65.85
4972;BME280;2501;51.214;6.768;2023-05-07T08:20:01;101326.84;;;18.84;65.80
4972;BME280;2501;51.214;6.768;2023-05-07T08:22:29;101312.25;;;19.46;63.44
4972;BME280;2501;51.214;6.768;2023-05-07T08:24:58;101323.63;;;19.11;63.76
4972;BME280;2501;51.214;6.768;2023-05-07T08:27:26;101328.88;;;18.69;65.89
4972;BME280;2501;51.214;6.768;2023-05-07T08:29:55;101321.19;;;18.53;67.53
4972;BME280;2501;51.214;6.768;2023-05-07T08:32:23;101320.53;;;18.38;67.70
4972;BME280;2501;51.214;6.768;2023-05-07T08:34:55;101318.13;;;19.20;65.60
4972;BME280;2501;51.214;6.768;2023-05-07T08:37:24;101327.44;;;18.98;66.22
4972;BME280;2501;51.214;6.768;2023-05-07T08:39:52;101322.91;;;19.44;64.09
4972;BME280;2501;51.214;6.768;2023-05-07T08:42:23;101317.91;;;20.45;60.88
4972;BME280;2501;51.214;6.768;2023-05-07T08:44:52;101322.06;;;20.21;60.34
4972;BME280;2501;51.214;6.768;2023-05-07T08:47:22;101320.47;;;19.75;62.63
4972;BME280;2501;51.214;6.768;2023-05-07T08:49:57;101324.41;;;19.59;62.50
4972;BME280;2501;51.214;6.768;2023-05-07T08:52:26;101322.06;;;19.84;62.47
4972;BME280;2501;51.214;6.768;2023-05-07T08:54:55;101322.22;;;19.76;62.96
4972;BME280;2501;51.214;6.768;2023-05-07T08:57:24;101318.84;;;20.44;61.84
4972;BME280;2501;51.214;6.768;2023-05-07T08:59:52;101327.28;;;20.94;60.29
4972;BME280;2501;51.214;6.768;2023-05-07T09:02:21;101324.75;;;20.57;60.62
4972;BME280;2501;51.214;6.768;2023-05-07T09:04:49;101324.41;;;20.33;60.84
4972;BME280;2501;51.214;6.768;2023-05-07T09:07:22;101318.53;;;20.21;58.88
4972;BME280;2501;51.214;6.768;2023-05-07T09:09:50;101321.97;;;19.47;63.03
4972;BME280;2501;51.214;6.768;2023-05-07T09:12:20;101321.50;;;20.08;61.75
4972;BME280;2501;51.214;6.768;2023-05-07T09:14:49;101317.31;;;19.97;60.74
4972;BME280;2501;51.214;6.768;2023-05-07T09:17:17;101321.84;;;20.29;58.76
4972;BME280;2501;51.214;6.768;2023-05-07T09:19:46;101315.66;;;20.64;57.67
4972;BME280;2501;51.214;6.768;2023-05-07T09:22:15;101329.13;;;20.92;58.55
4972;BME280;2501;51.214;6.768;2023-05-07T09:24:51;101328.88;;;20.33;59.12
4972;BME280;2501;51.214;6.768;2023-05-07T09:27:19;101321.16;;;19.85;61.66
4972;BME280;2501;51.214;6.768;2023-05-07T09:29:48;101320.44;;;19.77;61.36
4972;BME280;2501;51.214;6.768;2023-05-07T09:32:16;101320.72;;;20.40;59.25
4972;BME280;2501;51.214;6.768;2023-05-07T09:34:44;101321.88;;;19.92;60.38
4972;BME280;2501;51.214;6.768;2023-05-07T09:37:13;101323.63;;;19.93;60.17
4972;BME280;2501;51.214;6.768;2023-05-07T09:39:43;101318.97;;;20.02;58.65
4972;BME280;2501;51.214;6.768;2023-05-07T09:42:15;101326.31;;;20.64;56.87
4972;BME280;2501;51.214;6.768;2023-05-07T09:44:43;101313.19;;;20.21;57.43
4972;BME280;2501;51.214;6.768;2023-05-07T09:47:15;101323.91;;;20.87;56.68
4972;BME280;2501;51.214;6.768;2023-05-07T09:49:48;101325.81;;;20.49;56.22
4972;BME280;2501;51.214;6.768;2023-05-07T09:52:16;101321.88;;;19.92;57.63
4972;BME280;2501;51.214;6.768;2023-05-07T09:54:46;101315.66;;;20.64;55.94
4972;BME280;2501;51.214;6.768;2023-05-07T09:57:19;101312.97;;;21.29;54.08
4972;BME280;2501;51.214;6.768;2023-05-07T09:59:49;101305.00;;;22.14;51.59
4972;BME280;2501;51.214;6.768;2023-05-07T10:02:20;101310.78;;;21.43;52.79
4972;BME280;2501;51.214;6.768;2023-05-07T10:04:50;101316.16;;;21.10;53.11
4972;BME280;2501;51.214;6.768;2023-05-07T10:07:19;101307.53;;;21.32;53.09
4972;BME280;2501;51.214;6.768;2023-05-07T10:09:49;101314.03;;;20.58;54.11
4972;BME280;2501;51.214;6.768;2023-05-07T10:12:21;101308.56;;;22.39;50.50
4972;BME280;2501;51.214;6.768;2023-05-07T10:14:50;101302.94;;;23.21;47.57
4972;BME280;2501;51.214;6.768;2023-05-07T10:17:22;101302.31;;;24.07;45.39
4972;BME280;2501;51.214;6.768;2023-05-07T10:19:53;101296.22;;;22.62;48.46
4972;BME280;2501;51.214;6.768;2023-05-07T10:22:22;101293.94;;;22.25;49.12
4972;BME280;2501;51.214;6.768;2023-05-07T10:24:53;101294.69;;;23.27;46.65
4972;BME280;2501;51.214;6.768;2023-05-07T10:27:29;101295.75;;;23.00;46.83
4972;BME280;2501;51.214;6.768;2023-05-07T10:30:04;101285.78;;;23.04;46.49
4972;BME280;2501;51.214;6.768;2023-05-07T10:32:39;101298.69;;;22.16;49.04
4972;BME280;2501;51.214;6.768;2023-05-07T10:35:12;101297.16;;;22.34;49.48
4972;BME280;2501;51.214;6.768;2023-05-07T10:37:42;101302.44;;;22.87;49.47
4972;BME280;2501;51.214;6.768;2023-05-07T10:40:12;101305.03;;;22.90;48.43
4972;BME280;2501;51.214;6.768;2023-05-07T10:42:56;101289.06;;;23.12;47.61
4972;BME280;2501;51.214;6.768;2023-05-07T10:45:25;101291.53;;;24.50;44.84
4972;BME280;2501;51.214;6.768;2023-05-07T10:48:08;101296.00;;;23.17;46.86
4972;BME280;2501;51.214;6.768;2023-05-07T10:50:37;101291.81;;;23.34;47.13
4972;BME280;2501;51.214;6.768;2023-05-07T10:53:22;101299.47;;;23.43;46.10
4972;BME280;2501;51.214;6.768;2023-05-07T10:56:25;101291.59;;;24.69;44.00
4972;BME280;2501;51.214;6.768;2023-05-07T10:59:31;101291.06;;;23.97;46.00
4972;BME280;2501;51.214;6.768;2023-05-07T11:02:00;101273.22;;;25.01;43.14
4972;BME280;2501;51.214;6.768;2023-05-07T11:04:32;101276.22;;;25.32;42.48
4972;BME280;2501;51.214;6.768;2023-05-07T11:07:24;101278.47;;;23.55;46.01
4972;BME280;2501;51.214;6.768;2023-05-07T11:10:03;101280.41;;;24.39;44.02
4972;BME280;2501;51.214;6.768;2023-05-07T11:12:51;101283.28;;;23.46;46.22
4972;BME280;2501;51.214;6.768;2023-05-07T11:15:50;101280.41;;;23.52;46.30
4972;BME280;2501;51.214;6.768;2023-05-07T11:18:19;101274.94;;;23.55;45.65
4972;BME280;2501;51.214;6.768;2023-05-07T11:20:55;101274.78;;;22.63;48.77
4972;BME280;2501;51.214;6.768;2023-05-07T11:26:45;101285.03;;;22.75;48.15
4972;BME280;2501;51.214;6.768;2023-05-07T11:29:17;101278.81;;;23.23;46.95
4972;BME280;2501;51.214;6.768;2023-05-07T11:31:51;101273.66;;;22.69;48.29
4972;BME280;2501;51.214;6.768;2023-05-07T11:34:21;101283.88;;;22.84;47.82
4972;BME280;2501;51.214;6.768;2023-05-07T11:36:50;101273.50;;;22.73;47.46
4972;BME280;2501;51.214;6.768;2023-05-07T11:39:29;101268.34;;;22.94;47.54
4972;BME280;2501;51.214;6.768;2023-05-07T11:41:59;101268.88;;;23.93;44.78
4972;BME280;2501;51.214;6.768;2023-05-07T11:44:41;101270.16;;;23.16;46.05
4972;BME280;2501;51.214;6.768;2023-05-07T11:47:17;101270.50;;;23.31;46.81
4972;BME280;2501;51.214;6.768;2023-05-07T11:49:48;101266.72;;;23.13;46.65
4972;BME280;2501;51.214;6.768;2023-05-07T11:52:19;101278.00;;;23.21;46.76
4972;BME280;2501;51.214;6.768;2023-05-07T11:54:50;101270.88;;;23.67;46.03
4972;BME280;2501;51.214;6.768;2023-05-07T11:57:20;101269.03;;;23.45;45.91
4972;BME280;2501;51.214;6.768;2023-05-07T11:59:52;101273.25;;;23.74;44.67
4972;BME280;2501;51.214;6.768;2023-05-07T12:02:24;101272.59;;;23.22;46.37
4972;BME280;2501;51.214;6.768;2023-05-07T12:04:53;101274.09;;;23.06;46.80
4972;BME280;2501;51.214;6.768;2023-05-07T12:07:23;101275.31;;;22.98;46.91
4972;BME280;2501;51.214;6.768;2023-05-07T12:09:53;101273.13;;;23.32;46.49
4972;BME280;2501;51.214;6.768;2023-05-07T12:12:21;101282.69;;;22.66;46.64
4972;BME280;2501;51.214;6.768;2023-05-07T12:14:50;101288.59;;;22.25;47.60
4972;BME280;2501;51.214;6.768;2023-05-07T12:17:18;101282.88;;;22.09;48.62
4972;BME280;2501;51.214;6.768;2023-05-07T12:19:49;101284.38;;;23.40;45.97
4972;BME280;2501;51.214;6.768;2023-05-07T12:22:19;101286.09;;;23.66;44.94
4972;BME280;2501;51.214;6.768;2023-05-07T12:24:49;101289.72;;;23.18;46.12
4972;BME280;2501;51.214;6.768;2023-05-07T12:27:18;101283.78;;;23.34;45.34
4972;BME280;2501;51.214;6.768;2023-05-07T12:29:46;101288.34;;;23.30;45.77
4972;BME280;2501;51.214;6.768;2023-05-07T12:32:16;101284.78;;;23.54;45.33
4972;BME280;2501;51.214;6.768;2023-05-07T12:34:45;101282.41;;;23.45;45.11
4972;BME280;2501;51.214;6.768;2023-05-07T12:37:16;101282.19;;;23.28;45.37
4972;BME280;2501;51.214;6.768;2023-05-07T12:40:03;101294.06;;;22.98;46.27
4972;BME280;2501;51.214;6.768;2023-05-07T12:42:33;101283.81;;;23.32;45.92
4972;BME280;2501;51.214;6.768;2023-05-07T12:45:15;101287.34;;;23.09;46.65
4972;BME280;2501;51.214;6.768;2023-05-07T12:47:44;101291.06;;;23.05;47.64
4972;BME280;2501;51.214;6.768;2023-05-07T12:50:13;101284.16;;;23.00;47.76
4972;BME280;2501;51.214;6.768;2023-05-07T12:52:47;101285.72;;;22.82;48.36
4972;BME280;2501;51.214;6.768;2023-05-07T12:55:16;101284.59;;;22.87;48.35
4972;BME280;2501;51.214;6.768;2023-05-07T12:57:48;101280.69;;;22.98;47.88
4972;BME280;2501;51.214;6.768;2023-05-07T13:00:17;101287.78;;;22.99;47.71
4972;BME280;2501;51.214;6.768;2023-05-07T13:02:46;101283.88;;;23.31;46.85
4972;BME280;2501;51.214;6.768;2023-05-07T13:05:14;101286.28;;;23.15;47.58
4972;BME280;2501;51.214;6.768;2023-05-07T13:07:55;101287.09;;;23.17;47.31
4972;BME280;2501;51.214;6.768;2023-05-07T13:10:24;101280.88;;;23.38;47.04
4972;BME280;2501;51.214;6.768;2023-05-07T13:12:52;101293.19;;;22.71;48.73
4972;BME280;2501;51.214;6.768;2023-05-07T13:15:21;101296.78;;;22.96;48.33
4972;BME280;2501;51.214;6.768;2023-05-07T13:17:50;101295.97;;;22.94;48.11
4972;BME280;2501;51.214;6.768;2023-05-07T13:20:18;101294.97;;;22.47;49.99
4972;BME280;2501;51.214;6.768;2023-05-07T13:22:47;101308.13;;;22.27;50.37
4972;BME280;2501;51.214;6.768;2023-05-07T13:25:18;101312.41;;;22.04;50.45
4972;BME280;2501;51.214;6.768;2023-05-07T13:27:47;101318.31;;;21.58;52.75